createdAt,value
2022-10-01T00:00:20.277Z,16.10
2022-10-01T00:02:49.725Z,16.13
2022-10-01T00:05:19.288Z,16.67
2022-10-01T00:07:48.604Z,17.83
2022-10-01T00:10:18.283Z,15.03
2022-10-01T00:12:49.433Z,15.43
2022-10-01T00:15:21.958Z,14.60
2022-10-01T00:17:52.099Z,14.60
2022-10-01T00:20:22.623Z,14.77
2022-10-01T00:22:52.515Z,13.30
2022-10-01T00:25:23.039Z,13.80
2022-10-01T00:27:52.426Z,13.07
2022-10-01T00:30:23.251Z,12.57
2022-10-01T00:32:55.974Z,12.63
2022-10-01T00:35:25.403Z,12.77
2022-10-01T00:37:54.616Z,12.07
2022-10-01T00:40:24.791Z,12.50
2022-10-01T00:42:53.733Z,13.37
2022-10-01T00:45:24.293Z,12.30
2022-10-01T00:47:56.235Z,13.07
2022-10-01T00:50:27.782Z,12.03
2022-10-01T00:53:00.593Z,11.77
2022-10-01T00:55:32.438Z,13.70
2022-10-01T00:58:01.572Z,12.40
2022-10-01T01:00:33.152Z,12.23
2022-10-01T01:03:02.988Z,12.00
2022-10-01T01:05:31.381Z,11.47
2022-10-01T01:08:04.534Z,13.80
2022-10-01T01:10:41.038Z,12.23
2022-10-01T01:13:15.567Z,15.90
2022-10-01T01:15:53.239Z,12.27
2022-10-01T01:18:26.309Z,11.30
2022-10-01T01:21:12.194Z,12.10
2022-10-01T01:23:57.859Z,11.93
2022-10-01T01:26:35.760Z,11.27
2022-10-01T01:29:10.295Z,11.60
2022-10-01T01:31:43.069Z,10.60
2022-10-01T01:34:13.933Z,11.63
2022-10-01T01:36:47.315Z,10.77
2022-10-01T01:39:17.461Z,10.73
2022-10-01T01:41:51.223Z,10.60
2022-10-01T01:44:26.870Z,10.00
2022-10-01T01:46:58.327Z,10.07
2022-10-01T01:49:27.509Z,10.87
2022-10-01T01:52:00.440Z,11.83
2022-10-01T01:54:31.309Z,11.80
2022-10-01T01:57:02.231Z,9.93
2022-10-01T01:59:33.355Z,14.43
2022-10-01T02:02:03.791Z,9.90
2022-10-01T02:04:36.807Z,9.70
2022-10-01T02:07:27.864Z,10.23
2022-10-01T02:10:06.428Z,9.83
2022-10-01T02:12:44.281Z,8.80
2022-10-01T02:15:22.765Z,9.50
2022-10-01T02:17:58.489Z,9.57
2022-10-01T02:20:30.995Z,8.50
2022-10-01T02:23:04.688Z,8.70
2022-10-01T02:25:38.095Z,9.03
2022-10-01T02:28:10.318Z,8.93
2022-10-01T02:30:42.019Z,10.90
2022-10-01T02:33:14.343Z,8.90
2022-10-01T02:35:46.208Z,9.23
2022-10-01T02:38:16.976Z,8.53
2022-10-01T02:40:47.642Z,8.67
2022-10-01T02:43:21.707Z,8.43
2022-10-01T02:45:57.907Z,10.47
2022-10-01T02:48:27.500Z,8.07
2022-10-01T02:51:01.160Z,8.73
2022-10-01T02:53:34.970Z,8.57
2022-10-01T02:56:05.900Z,8.97
2022-10-01T02:58:34.224Z,8.83
2022-10-01T03:01:04.602Z,9.70
2022-10-01T03:03:34.024Z,8.00
2022-10-01T03:06:03.253Z,15.30
2022-10-01T03:08:32.208Z,11.63
2022-10-01T03:11:01.958Z,9.83
2022-10-01T03:13:30.742Z,8.53
2022-10-01T03:16:00.428Z,7.67
2022-10-01T03:18:30.687Z,8.13
2022-10-01T03:20:59.400Z,9.20
2022-10-01T03:23:28.014Z,8.07
2022-10-01T03:25:57.193Z,10.20
2022-10-01T03:28:26.671Z,8.40
2022-10-01T03:31:07.385Z,7.83
2022-10-01T03:33:38.357Z,7.60
2022-10-01T03:36:07.344Z,8.13
2022-10-01T03:38:36.528Z,7.87
2022-10-01T03:41:06.491Z,7.67
2022-10-01T03:43:37.116Z,9.77
2022-10-01T03:46:07.244Z,9.10
2022-10-01T03:48:38.323Z,7.90
2022-10-01T03:51:08.579Z,9.13
2022-10-01T03:53:39.902Z,8.07
2022-10-01T03:56:09.695Z,9.77
2022-10-01T03:58:38.362Z,8.67
2022-10-01T04:01:07.350Z,8.07
2022-10-01T04:03:37.732Z,10.30
2022-10-01T04:06:08.111Z,8.80
2022-10-01T04:08:38.651Z,8.00
2022-10-01T04:11:07.982Z,8.33
2022-10-01T04:13:37.608Z,8.33
2022-10-01T04:16:08.475Z,8.80
2022-10-01T04:18:39.242Z,8.63
2022-10-01T04:21:08.340Z,7.93
2022-10-01T04:23:37.580Z,7.13
2022-10-01T04:26:06.711Z,8.07
2022-10-01T04:28:35.694Z,7.47
2022-10-01T04:31:22.924Z,8.13
2022-10-01T04:33:54.165Z,7.57
2022-10-01T04:36:24.196Z,7.50
2022-10-01T04:38:58.054Z,8.23
2022-10-01T04:41:30.834Z,8.07
2022-10-01T04:44:00.781Z,6.87
2022-10-01T04:46:31.003Z,8.80
2022-10-01T04:49:01.946Z,8.97
2022-10-01T04:51:31.847Z,7.87
2022-10-01T04:54:02.046Z,9.57
2022-10-01T04:56:31.409Z,8.53
2022-10-01T04:59:00.710Z,6.73
2022-10-01T05:01:31.404Z,8.97
2022-10-01T05:04:03.018Z,7.27
2022-10-01T05:06:32.115Z,6.90
2022-10-01T05:09:01.501Z,6.27
2022-10-01T05:11:29.941Z,6.20
2022-10-01T05:13:58.797Z,6.73
2022-10-01T05:16:27.406Z,6.93
2022-10-01T05:18:57.032Z,6.63
2022-10-01T05:21:28.596Z,11.00
2022-10-01T05:23:58.096Z,6.70
2022-10-01T05:26:27.604Z,7.63
2022-10-01T05:28:56.986Z,8.37
2022-10-01T05:31:25.913Z,7.17
2022-10-01T05:33:55.537Z,7.17
2022-10-01T05:36:26.830Z,6.57
2022-10-01T05:38:57.082Z,6.07
2022-10-01T05:41:26.695Z,6.57
2022-10-01T05:43:55.994Z,7.23
2022-10-01T05:46:25.800Z,6.03
2022-10-01T05:48:55.657Z,5.43
2022-10-01T05:51:24.733Z,7.10
2022-10-01T05:53:59.186Z,5.40
2022-10-01T05:56:28.691Z,5.90
2022-10-01T05:58:57.744Z,5.67
2022-10-01T06:01:26.940Z,7.47
2022-10-01T06:03:56.683Z,6.50
2022-10-01T06:06:27.031Z,5.67
2022-10-01T06:08:57.962Z,5.67
2022-10-01T06:11:27.468Z,5.33
2022-10-01T06:13:57.684Z,5.80
2022-10-01T06:16:27.824Z,6.03
2022-10-01T06:18:58.453Z,5.30
2022-10-01T06:21:28.850Z,6.07
2022-10-01T06:23:59.710Z,5.17
2022-10-01T06:26:30.117Z,8.30
2022-10-01T06:28:59.536Z,5.77
2022-10-01T06:31:29.009Z,5.17
2022-10-01T06:33:58.358Z,8.80
2022-10-01T06:36:27.547Z,5.77
2022-10-01T06:38:57.024Z,7.10
2022-10-01T06:41:27.768Z,7.03
2022-10-01T06:43:59.458Z,5.87
2022-10-01T06:46:29.380Z,4.73
2022-10-01T06:48:59.135Z,4.83
2022-10-01T06:51:42.696Z,5.03
2022-10-01T06:54:12.443Z,6.03
2022-10-01T06:56:43.077Z,6.03
2022-10-01T06:59:12.679Z,4.93
2022-10-01T07:01:41.736Z,5.43
2022-10-01T07:04:10.768Z,5.60
2022-10-01T07:06:39.483Z,5.93
2022-10-01T07:09:08.503Z,6.23
2022-10-01T07:11:41.450Z,5.40
2022-10-01T07:14:12.594Z,5.40
2022-10-01T07:16:42.289Z,6.40
2022-10-01T07:19:12.273Z,7.80
2022-10-01T07:21:41.910Z,8.63
2022-10-01T07:24:10.864Z,7.17
2022-10-01T07:26:39.811Z,6.43
2022-10-01T07:29:09.959Z,5.10
2022-10-01T07:31:41.430Z,10.23
2022-10-01T07:34:10.208Z,5.97
2022-10-01T07:36:39.944Z,5.67
2022-10-01T07:39:09.508Z,6.93
2022-10-01T07:41:38.762Z,5.17
2022-10-01T07:44:08.274Z,6.47
2022-10-01T07:46:36.983Z,4.97
2022-10-01T07:49:07.593Z,5.33
2022-10-01T07:51:37.844Z,5.20
2022-10-01T07:54:07.542Z,5.03
2022-10-01T07:56:36.062Z,4.23
2022-10-01T07:59:04.883Z,4.50
2022-10-01T08:01:34.392Z,3.77
2022-10-01T08:04:25.486Z,6.93
2022-10-01T08:06:57.515Z,3.87
2022-10-01T08:09:27.231Z,5.03
2022-10-01T08:11:56.754Z,5.03
2022-10-01T08:14:27.063Z,4.30
2022-10-01T08:16:57.603Z,4.67
2022-10-01T08:19:27.177Z,4.63
2022-10-01T08:21:57.823Z,4.30
2022-10-01T08:24:28.768Z,6.43
2022-10-01T08:26:58.452Z,6.97
2022-10-01T08:29:29.494Z,5.00
2022-10-01T08:31:59.091Z,7.10
2022-10-01T08:34:27.948Z,4.60
2022-10-01T08:36:59.194Z,4.60
2022-10-01T08:39:28.018Z,5.00
2022-10-01T08:42:02.266Z,4.33
2022-10-01T08:44:35.226Z,4.97
2022-10-01T08:47:10.914Z,3.50
2022-10-01T08:49:43.637Z,5.93
2022-10-01T08:52:21.600Z,7.77
2022-10-01T08:54:54.085Z,4.43
2022-10-01T08:57:25.689Z,5.53
2022-10-01T08:59:56.982Z,5.00
2022-10-01T09:02:28.131Z,9.27
2022-10-01T09:05:01.723Z,5.43
2022-10-01T09:07:47.340Z,6.53
2022-10-01T09:10:36.089Z,5.33
2022-10-01T09:13:27.051Z,4.67
2022-10-01T09:16:00.367Z,4.10
2022-10-01T09:18:41.084Z,4.60
2022-10-01T09:21:15.843Z,7.43
2022-10-01T09:23:54.002Z,5.70
2022-10-01T09:26:25.750Z,5.00
2022-10-01T09:28:56.218Z,4.57
2022-10-01T09:31:30.396Z,6.07
2022-10-01T09:34:05.611Z,4.67
2022-10-01T09:36:39.807Z,6.43
2022-10-01T09:39:18.696Z,5.07
2022-10-01T09:41:48.730Z,4.20
2022-10-01T09:44:20.007Z,5.33
2022-10-01T09:46:49.334Z,4.27
2022-10-01T09:49:28.336Z,4.23
2022-10-01T09:52:02.796Z,4.30
2022-10-01T09:54:37.182Z,4.80
2022-10-01T09:57:09.841Z,5.30
2022-10-01T09:59:44.717Z,5.30
2022-10-01T10:02:21.704Z,4.80
2022-10-01T10:05:02.090Z,6.17
2022-10-01T10:07:32.843Z,4.37
2022-10-01T10:10:13.436Z,4.87
2022-10-01T10:12:44.484Z,4.20
2022-10-01T10:15:18.068Z,5.90
2022-10-01T10:17:50.520Z,5.60
2022-10-01T10:20:27.294Z,5.07
2022-10-01T10:22:56.109Z,6.33
2022-10-01T10:25:27.224Z,4.73
2022-10-01T10:27:59.901Z,6.57
2022-10-01T10:30:30.074Z,5.60
2022-10-01T10:33:08.845Z,6.90
2022-10-01T10:35:38.657Z,5.10
2022-10-01T10:38:09.014Z,4.33
2022-10-01T10:40:44.919Z,5.50
2022-10-01T10:43:20.871Z,6.13
2022-10-01T10:45:50.504Z,5.67
2022-10-01T10:48:21.015Z,5.00
2022-10-01T10:50:51.053Z,9.13
2022-10-01T10:53:22.680Z,4.63
2022-10-01T10:56:01.325Z,4.83
2022-10-01T10:58:31.161Z,5.90
2022-10-01T11:01:02.111Z,5.10
2022-10-01T11:03:33.366Z,6.10
2022-10-01T11:06:06.141Z,5.03
2022-10-01T11:08:35.915Z,4.67
2022-10-01T11:11:17.471Z,4.50
2022-10-01T11:14:00.625Z,4.13
2022-10-01T11:16:48.070Z,5.00
2022-10-01T11:19:43.699Z,4.70
2022-10-01T11:22:20.755Z,4.63
2022-10-01T11:25:19.099Z,5.13
2022-10-01T11:27:58.158Z,4.13
2022-10-01T11:30:30.399Z,5.23
2022-10-01T11:33:05.522Z,4.80
2022-10-01T11:35:45.813Z,4.53
2022-10-01T11:38:43.735Z,4.90
2022-10-01T11:41:21.374Z,5.33
2022-10-01T11:43:54.898Z,4.43
2022-10-01T11:46:35.526Z,4.40
2022-10-01T11:49:18.079Z,4.97
2022-10-01T11:51:52.010Z,4.23
2022-10-01T11:54:24.154Z,4.07
2022-10-01T11:57:12.348Z,4.00
2022-10-01T11:59:50.155Z,5.57
2022-10-01T12:02:25.426Z,4.47
2022-10-01T12:04:59.360Z,3.93
2022-10-01T12:07:32.133Z,3.70
2022-10-01T12:10:08.360Z,6.80
2022-10-01T12:12:42.459Z,3.73
2022-10-01T12:15:16.639Z,4.73
2022-10-01T12:17:50.720Z,4.37
2022-10-01T12:20:25.739Z,3.40
2022-10-01T12:22:56.615Z,3.27
2022-10-01T12:25:29.888Z,4.87
2022-10-01T12:28:04.477Z,2.83
2022-10-01T12:30:42.555Z,2.90
2022-10-01T12:33:39.915Z,3.10
2022-10-01T12:36:15.874Z,2.83
2022-10-01T12:38:55.524Z,4.17
2022-10-01T12:41:33.939Z,2.93
2022-10-01T12:44:12.635Z,2.20
2022-10-01T12:46:48.518Z,4.10
2022-10-01T12:49:24.340Z,4.03
2022-10-01T12:51:58.304Z,2.33
2022-10-01T12:54:46.363Z,3.30
2022-10-01T12:57:25.448Z,2.10
2022-10-01T13:00:05.883Z,1.90
2022-10-01T13:03:12.741Z,2.60
2022-10-01T13:05:52.498Z,1.83
2022-10-01T13:08:33.155Z,3.10
2022-10-01T13:11:06.917Z,1.80
2022-10-01T13:13:36.688Z,2.03
2022-10-01T13:16:12.693Z,2.13
2022-10-01T13:18:52.785Z,1.67
2022-10-01T13:21:28.650Z,1.90
2022-10-01T13:24:02.813Z,2.10
2022-10-01T13:26:36.907Z,1.97
2022-10-01T13:29:17.456Z,3.40
2022-10-01T13:31:57.285Z,3.33
2022-10-01T13:34:36.466Z,2.03
2022-10-01T13:37:16.967Z,7.00
2022-10-01T13:39:47.238Z,6.07
2022-10-01T13:42:24.004Z,4.73
2022-10-01T13:44:58.409Z,3.83
2022-10-01T13:47:28.721Z,2.67
2022-10-01T13:50:04.111Z,3.50
2022-10-01T13:52:34.286Z,4.83
2022-10-01T13:55:04.880Z,3.30
2022-10-01T13:57:36.865Z,4.87
2022-10-01T14:00:23.858Z,4.03
2022-10-01T14:03:06.174Z,2.60
2022-10-01T14:05:39.708Z,6.57
2022-10-01T14:08:17.677Z,5.30
2022-10-01T14:11:08.538Z,3.73
2022-10-01T14:14:01.248Z,4.90
2022-10-01T14:16:31.892Z,4.67
2022-10-01T14:19:01.535Z,5.20
2022-10-01T14:21:40.123Z,6.57
2022-10-01T14:24:15.869Z,3.70
2022-10-01T14:26:53.299Z,4.47
2022-10-01T14:29:43.852Z,4.00
2022-10-01T14:32:23.410Z,6.17
2022-10-01T14:35:06.675Z,2.97
2022-10-01T14:37:41.476Z,3.90
2022-10-01T14:40:18.802Z,4.77
2022-10-01T14:42:59.361Z,3.63
2022-10-01T14:45:28.709Z,5.53
2022-10-01T14:48:05.301Z,6.30
2022-10-01T14:50:36.479Z,5.53
2022-10-01T14:53:09.020Z,3.93
2022-10-01T14:55:39.114Z,4.80
2022-10-01T14:58:07.830Z,5.57
2022-10-01T15:00:38.313Z,4.97
2022-10-01T15:03:15.570Z,5.47
2022-10-01T15:05:45.916Z,5.67
2022-10-01T15:08:20.469Z,5.67
2022-10-01T15:10:51.905Z,5.43
2022-10-01T15:13:25.061Z,6.20
2022-10-01T15:15:54.421Z,5.33
2022-10-01T15:18:24.755Z,6.80
2022-10-01T15:20:56.920Z,5.00
2022-10-01T15:23:29.192Z,7.83
2022-10-01T15:26:00.243Z,6.80
2022-10-01T15:28:32.420Z,7.33
2022-10-01T15:31:03.618Z,5.67
2022-10-01T15:33:35.908Z,8.27
2022-10-01T15:36:06.664Z,5.63
2022-10-01T15:38:37.317Z,6.13
2022-10-01T15:41:30.445Z,9.67
2022-10-01T15:43:56.990Z,8.57
2022-10-01T15:46:33.615Z,7.77
2022-10-01T15:49:26.239Z,6.23
2022-10-01T15:52:16.173Z,5.23
2022-10-01T15:54:49.172Z,6.33
2022-10-01T15:57:21.727Z,7.23
2022-10-01T15:59:52.521Z,5.83
2022-10-01T16:02:25.046Z,6.63
2022-10-01T16:04:57.025Z,5.20
2022-10-01T16:07:32.107Z,9.20
2022-10-01T16:10:16.143Z,7.20
2022-10-01T16:12:45.265Z,7.63
2022-10-01T16:15:26.785Z,7.93
2022-10-01T16:17:58.391Z,7.37
2022-10-01T16:20:39.103Z,6.80
2022-10-01T16:23:51.295Z,11.33
2022-10-01T16:26:42.336Z,6.03
2022-10-01T16:29:24.189Z,7.47
2022-10-01T16:31:53.151Z,9.13
2022-10-01T16:34:23.647Z,9.50
2022-10-01T16:36:53.082Z,8.47
2022-10-01T16:39:23.364Z,7.80
2022-10-01T16:42:19.227Z,8.70
2022-10-01T16:44:46.352Z,9.13
2022-10-01T16:47:15.448Z,7.10
2022-10-01T16:49:45.202Z,12.60
2022-10-01T16:52:16.865Z,11.43
2022-10-01T16:54:47.429Z,6.23
2022-10-01T16:57:18.812Z,10.90
2022-10-01T16:59:48.235Z,9.30
2022-10-01T17:02:17.590Z,10.20
2022-10-01T17:04:46.201Z,8.37
2022-10-01T17:07:15.568Z,8.70
2022-10-01T17:09:44.558Z,6.77
2022-10-01T17:12:13.811Z,7.83
2022-10-01T17:14:44.766Z,4.83
2022-10-01T17:17:14.424Z,5.73
2022-10-01T17:19:44.061Z,3.37
2022-10-01T17:22:13.587Z,3.83
2022-10-01T17:24:43.507Z,7.27
2022-10-01T17:27:12.167Z,7.27
2022-10-01T17:29:43.435Z,7.37
2022-10-01T17:32:12.725Z,5.63
2022-10-01T17:34:41.542Z,6.67
2022-10-01T17:37:11.315Z,4.67
2022-10-01T17:39:41.254Z,5.37
2022-10-01T17:42:10.068Z,8.43
2022-10-01T17:44:40.259Z,5.20
2022-10-01T17:47:10.948Z,8.33
2022-10-01T17:49:39.823Z,6.53
2022-10-01T17:52:09.101Z,7.83
2022-10-01T17:54:38.664Z,7.03
2022-10-01T17:57:11.030Z,7.43
2022-10-01T17:59:40.398Z,5.90
2022-10-01T18:02:36.565Z,11.13
2022-10-01T18:05:03.791Z,6.63
2022-10-01T18:07:33.481Z,6.33
2022-10-01T18:10:02.344Z,6.53
2022-10-01T18:12:31.256Z,6.87
2022-10-01T18:15:00.754Z,13.87
2022-10-01T18:17:33.489Z,8.83
2022-10-01T18:20:03.279Z,9.00
2022-10-01T18:22:32.602Z,8.20
2022-10-01T18:25:01.359Z,8.17
2022-10-01T18:27:30.590Z,8.60
2022-10-01T18:29:59.674Z,6.47
2022-10-01T18:32:33.256Z,5.30
2022-10-01T18:35:03.707Z,6.43
2022-10-01T18:37:39.170Z,5.13
2022-10-01T18:40:12.655Z,7.07
2022-10-01T18:42:46.386Z,5.60
2022-10-01T18:45:18.451Z,7.10
2022-10-01T18:47:59.906Z,7.30
2022-10-01T18:50:40.597Z,4.47
2022-10-01T18:53:22.703Z,5.63
2022-10-01T18:56:14.448Z,7.80
2022-10-01T18:58:55.304Z,5.07
2022-10-01T19:01:31.632Z,7.40
2022-10-01T19:04:30.548Z,4.20
2022-10-01T19:07:07.387Z,5.53
2022-10-01T19:09:46.007Z,5.63
2022-10-01T19:12:24.930Z,6.73
2022-10-01T19:15:02.222Z,6.27
2022-10-01T19:17:53.070Z,6.53
2022-10-01T19:20:35.743Z,5.40
2022-10-01T19:23:24.665Z,7.77
2022-10-01T19:25:58.306Z,8.13
2022-10-01T19:28:40.500Z,5.27
2022-10-01T19:31:14.113Z,6.23
2022-10-01T19:33:48.716Z,10.87
2022-10-01T19:36:25.131Z,11.07
2022-10-01T19:38:57.050Z,5.53
2022-10-01T19:41:29.983Z,6.33
2022-10-01T19:44:02.231Z,6.97
2022-10-01T19:46:37.092Z,8.10
2022-10-01T19:49:16.963Z,7.30
2022-10-01T19:51:50.570Z,7.77
2022-10-01T19:54:22.657Z,8.63
2022-10-01T19:56:54.958Z,10.90
2022-10-01T19:59:24.752Z,9.83
2022-10-01T20:02:00.232Z,15.83
2022-10-01T20:04:38.502Z,10.43
2022-10-01T20:07:13.493Z,9.03
2022-10-01T20:09:46.624Z,5.50
2022-10-01T20:12:23.437Z,8.03
2022-10-01T20:15:13.184Z,10.43
2022-10-01T20:18:04.254Z,10.30
2022-10-01T20:20:37.634Z,8.70
2022-10-01T20:23:22.333Z,12.47
2022-10-01T20:25:55.400Z,11.83
2022-10-01T20:28:29.309Z,10.97
2022-10-01T20:31:02.357Z,12.80
2022-10-01T20:33:37.814Z,11.33
2022-10-01T20:36:12.651Z,8.23
2022-10-01T20:38:48.056Z,9.47
2022-10-01T20:41:19.749Z,8.67
2022-10-01T20:43:50.773Z,11.47
2022-10-01T20:46:25.873Z,8.60
2022-10-01T20:49:01.175Z,8.97
2022-10-01T20:51:36.341Z,8.07
2022-10-01T20:54:11.557Z,15.50
2022-10-01T20:56:44.309Z,18.53
2022-10-01T20:59:19.616Z,7.83
2022-10-01T21:02:02.714Z,10.17
2022-10-01T21:04:38.324Z,18.40
2022-10-01T21:07:15.916Z,7.57
2022-10-01T21:09:48.301Z,8.33
2022-10-01T21:12:22.836Z,15.10
2022-10-01T21:14:55.244Z,12.03
2022-10-01T21:17:31.540Z,14.30
2022-10-01T21:20:34.183Z,17.80
2022-10-01T21:23:12.592Z,16.47
2022-10-01T21:25:52.510Z,9.97
2022-10-01T21:28:48.116Z,13.20
2022-10-01T21:31:26.857Z,15.03
2022-10-01T21:34:00.865Z,10.63
2022-10-01T21:36:39.765Z,14.97
2022-10-01T21:39:13.743Z,15.50
2022-10-01T21:41:53.834Z,21.00
2022-10-01T21:44:48.441Z,17.57
2022-10-01T21:47:23.314Z,12.73
2022-10-01T21:49:59.854Z,15.07
2022-10-01T21:52:37.823Z,15.00
2022-10-01T21:55:31.768Z,14.27
2022-10-01T21:58:23.387Z,16.33
2022-10-01T22:01:00.772Z,11.97
2022-10-01T22:03:36.867Z,18.73
2022-10-01T22:06:12.473Z,12.73
2022-10-01T22:08:51.269Z,18.47
2022-10-01T22:11:21.769Z,12.53
2022-10-01T22:13:59.440Z,14.10
2022-10-01T22:16:32.816Z,16.10
2022-10-01T22:19:07.109Z,13.90
2022-10-01T22:21:40.487Z,19.20
2022-10-01T22:24:12.031Z,15.83
2022-10-01T22:26:42.149Z,18.43
2022-10-01T22:29:17.612Z,14.63
2022-10-01T22:31:48.144Z,16.57
2022-10-01T22:34:19.943Z,14.50
2022-10-01T22:36:52.855Z,14.03
2022-10-01T22:39:25.061Z,17.80
2022-10-01T22:41:59.829Z,15.17
2022-10-01T22:44:30.473Z,14.23
2022-10-01T22:47:21.010Z,16.97
2022-10-01T22:50:03.554Z,20.53
2022-10-01T22:52:39.628Z,20.60
2022-10-01T22:55:25.015Z,19.10
2022-10-01T22:58:22.284Z,15.10
2022-10-01T23:01:00.717Z,12.37
2022-10-01T23:03:38.823Z,20.83
2022-10-01T23:06:11.626Z,10.90
2022-10-01T23:08:46.407Z,14.17
2022-10-01T23:11:21.612Z,13.93
2022-10-01T23:13:57.414Z,15.73
2022-10-01T23:16:36.026Z,16.10
2022-10-01T23:19:20.932Z,15.70
2022-10-01T23:21:57.529Z,16.57
2022-10-01T23:24:37.867Z,15.40
2022-10-01T23:27:15.446Z,17.60
2022-10-01T23:30:06.316Z,15.00
2022-10-01T23:32:57.080Z,12.57
2022-10-01T23:35:33.630Z,9.10
2022-10-01T23:38:17.455Z,10.93
2022-10-01T23:40:48.489Z,11.03
2022-10-01T23:43:28.716Z,9.67
2022-10-01T23:46:02.843Z,10.60
2022-10-01T23:48:41.405Z,8.00
2022-10-01T23:51:14.626Z,9.10
2022-10-01T23:53:47.084Z,14.00
2022-10-01T23:56:37.226Z,10.33
2022-10-01T23:59:12.829Z,8.83
